Latest Weather Observations for Coolangatta

IDQ60801

Issued at 9:32 am EST Saturday 30 April 2016 (issued every 30 minutes, with the page automatically refreshed every 10 minutes)

About weather observations | Map of weather stations | Latest weather observations for QLD | Other Formats
Station Details ID: 040717 Name: COOLANGATTA Lat: -28.17 Lon: 153.51 Height: 4.0 m
Data from the previous 72 hours. | See also: Recent months at Coolangatta
Date/Time
EST
Temp
°C
App
Temp
°C
Dew
Point
Rel
Hum
%
Delta-T
°C
Wind Press
QNH
hPa
Press
MSL
hPa
Rain
since 9 am
mm
Dir
 
Spd
km/h
Gust
km/h
Spd
kts
Gust
kts
30/09:30am 22.8 25.9 21.1 90 1.1 NW 6 9 3 5 1022.0 1022.0 0.0
30/09:12am 22.6 26.1 20.3 87 1.5 NNE 2 7 1 4 1022.0 1022.0 0.0
30/09:01am 22.3 25.5 20.4 89 1.2 ENE 4 9 2 5 1022.1 1022.1 0.0
30/09:00am 22.4 25.7 20.7 90 1.1 ENE 4 9 2 5 1022.1 1022.1 24.6
30/08:30am 21.5 25.6 20.8 96 0.5 CALM 0 2 0 1 1021.9 1021.9 24.6
30/08:00am 20.9 23.6 20.6 98 0.2 SSW 7 9 4 5 1021.9 1021.9 24.6
30/07:30am 20.4 23.1 20.2 99 0.1 S 6 7 3 4 1021.7 1021.7 24.6
30/07:00am 20.1 22.6 19.9 99 0.1 S 6 6 3 3 1021.4 1021.4 24.6
30/06:30am 19.6 21.8 19.3 98 0.2 SSE 6 6 3 3 1021.1 1021.1 24.6
30/06:00am 19.5 21.7 19.2 98 0.2 SSE 6 7 3 4 1021.0 1021.0 24.6
30/05:30am 19.5 21.7 19.2 98 0.2 SSE 6 7 3 4 1020.7 1020.7 24.6
30/05:00am 20.0 21.5 19.7 98 0.2 WSW 11 15 6 8 1020.6 1020.6 24.6
30/04:30am 19.9 22.3 19.6 98 0.2 SSW 6 7 3 4 1020.3 1020.3 24.4
30/04:00am 19.8 23.3 19.5 98 0.2 CALM 0 0 0 0 1020.3 1020.3 24.4
30/03:30am 20.2 23.9 19.9 98 0.2 CALM 0 0 0 0 1020.5 1020.5 24.4
30/03:00am 20.1 22.6 19.8 98 0.2 SSW 6 9 3 5 1020.5 1020.5 24.4
30/02:45am 20.1 22.4 19.8 98 0.2 SW 7 11 4 6 1020.5 1020.5 24.4
30/02:41am 20.1 22.0 19.8 98 0.2 SW 9 11 5 6 1020.5 1020.5 24.4
30/02:30am 20.2 22.5 19.9 98 0.2 SW 7 13 4 7 1020.6 1020.6 24.4
30/02:24am 20.2 22.5 19.9 98 0.2 NNW 7 13 4 7 1020.7 1020.7 23.8
30/02:09am 19.9 21.2 19.4 97 0.3 WNW 11 15 6 8 1020.7 1020.7 18.2
30/02:00am 20.0 21.1 19.7 98 0.2 WSW 13 17 7 9 1020.7 1020.7 17.0
30/01:51am 20.0 21.1 19.7 98 0.2 WSW 13 17 7 9 1020.8 1020.8 17.0
30/01:30am 19.9 21.2 19.4 97 0.3 SW 11 15 6 8 1021.2 1021.2 16.4
30/01:00am 20.0 21.8 19.5 97 0.3 SW 9 11 5 6 1021.3 1021.3 16.4
30/12:43am 20.1 21.5 19.6 97 0.3 WSW 11 13 6 7 1021.5 1021.5 16.4
30/12:30am 20.2 22.1 19.7 97 0.3 SW 9 11 5 6 1021.7 1021.7 16.2
30/12:21am 20.2 22.1 19.7 97 0.3 S 9 13 5 7 1021.8 1021.8 15.6
30/12:00am 20.2 21.3 19.7 97 0.3 SW 13 15 7 8 1021.8 1021.8 15.0
 
Date/Time
EST
Temp
°C
App
Temp
°C
Dew
Point
Rel
Hum
%
Delta-T
°C
Wind Press
QNH
hPa
Press
MSL
hPa
Rain
since 9 am
mm
Dir
 
Spd
km/h
Gust
km/h
Spd
kts
Gust
kts
29/11:53pm 20.3 21.8 19.8 97 0.3 WSW 11 15 6 8 1021.9 1021.9 15.0
29/11:47pm 20.3 22.1 19.6 96 0.4 SW 9 13 5 7 1022.0 1022.0 15.0
29/11:30pm 20.3 21.7 19.6 96 0.4 W 11 15 6 8 1022.3 1022.3 14.8
29/11:10pm 20.6 23.4 19.6 94 0.6 - 4 17 2 9 1022.8 1022.8 10.2
29/11:00pm 20.8 21.5 19.6 93 0.8 N 15 24 8 13 1022.7 1022.7 2.6
29/10:30pm 19.9 22.3 18.0 89 1.2 SW 2 7 1 4 1022.7 1022.7 0.0
29/10:00pm 20.0 22.1 18.0 88 1.2 WSW 4 7 2 4 1022.6 1022.6 0.0
29/09:30pm 20.1 22.6 18.1 88 1.2 SSW 2 6 1 3 1022.7 1022.7 0.0
29/09:00pm 20.2 21.7 18.0 87 1.4 SW 7 11 4 6 1022.6 1022.6 0.0
29/08:30pm 20.3 21.4 18.1 87 1.4 SW 9 13 5 7 1022.6 1022.6 0.0
29/08:00pm 20.1 21.7 18.2 89 1.2 SW 7 13 4 7 1022.6 1022.6 0.0
29/07:30pm 20.2 21.7 18.1 88 1.3 SW 7 11 4 6 1022.4 1022.4 0.0
29/07:00pm 20.5 21.8 18.4 88 1.3 WSW 9 11 5 6 1022.2 1022.2 0.0
29/06:30pm 20.8 22.6 18.2 85 1.6 SW 6 9 3 5 1021.8 1021.8 0.0
29/06:00pm 21.8 23.0 17.4 76 2.7 SE 7 9 4 5 1021.6 1021.6 0.0
29/05:30pm 22.6 23.5 17.5 73 3.2 ESE 9 11 5 6 1021.5 1021.5 0.0
29/05:00pm 23.2 24.0 17.2 69 3.7 ESE 9 13 5 7 1021.2 1021.2 0.0
29/04:30pm 24.1 24.1 17.1 65 4.3 ESE 13 19 7 10 1021.0 1021.0 0.0
29/04:00pm 24.7 24.3 17.2 63 4.6 ESE 15 20 8 11 1020.8 1020.8 0.0
29/03:30pm 24.8 24.8 17.3 63 4.7 E 13 20 7 11 1020.8 1020.8 0.0
29/03:00pm 24.6 24.8 17.6 65 4.4 E 13 19 7 10 1020.8 1020.8 0.0
29/02:30pm 25.5 25.0 16.9 59 5.3 ESE 15 22 8 12 1020.9 1020.9 0.0
29/02:00pm 25.6 25.5 17.8 62 4.9 ESE 15 22 8 12 1020.9 1020.9 0.0
29/01:30pm 26.2 26.5 17.8 60 5.3 E 13 24 7 13 1021.2 1021.2 0.0
29/01:00pm 25.5 25.2 17.4 61 5.0 E 15 22 8 12 1021.3 1021.3 0.0
29/12:30pm 25.8 25.8 18.2 63 4.8 E 15 20 8 11 1021.7 1021.7 0.0
29/12:00pm 25.9 26.3 18.1 62 4.9 E 13 20 7 11 1022.2 1022.2 0.0
29/11:30am 25.4 25.8 18.1 64 4.6 E 13 20 7 11 1022.7 1022.7 0.0
29/11:00am 24.7 25.5 19.1 71 3.6 SE 13 19 7 10 1023.5 1023.5 0.0
29/10:30am 23.4 25.4 19.1 77 2.7 SSE 7 11 4 6 1023.9 1023.9 0.0
29/10:00am 23.8 23.8 18.0 70 3.6 S 15 20 8 11 1024.3 1024.3 0.0
29/09:30am 23.3 23.5 17.7 71 3.5 S 13 15 7 8 1024.3 1024.3 0.0
29/09:00am 21.9 23.3 18.7 82 2.0 SSE 9 11 5 6 1024.4 1024.4 0.0
29/08:30am 21.2 23.0 18.8 86 1.5 SSE 7 7 4 4 1024.4 1024.4 0.0
29/08:00am 20.9 22.9 18.7 87 1.4 S 6 9 3 5 1024.2 1024.2 0.0
29/07:30am 19.8 21.4 18.3 91 0.9 SE 7 11 4 6 1023.9 1023.9 0.0
29/07:00am 18.1 19.5 17.3 95 0.5 SSW 6 9 3 5 1023.7 1023.7 0.0
29/06:30am 17.1 18.5 16.3 95 0.5 SSW 4 7 2 4 1023.5 1023.5 0.0
29/06:00am 17.4 18.2 16.4 94 0.6 SE 7 9 4 5 1023.2 1023.2 0.0
29/05:30am 17.5 18.6 16.5 94 0.6 S 6 9 3 5 1022.9 1022.9 0.0
29/05:00am 17.7 18.6 16.7 94 0.6 SSW 7 9 4 5 1022.7 1022.7 0.0
29/04:30am 17.6 18.6 16.8 95 0.5 SSW 7 9 4 5 1022.5 1022.5 0.0
29/04:00am 17.3 18.2 16.7 96 0.4 S 7 9 4 5 1022.3 1022.3 0.0
29/03:30am 17.8 19.0 17.3 97 0.3 S 7 9 4 5 1022.4 1022.4 0.0
29/03:00am 17.5 18.2 17.0 97 0.3 SSE 9 11 5 6 1022.7 1022.7 0.0
29/02:30am 17.2 19.1 16.6 96 0.4 SSW 2 7 1 4 1022.9 1022.9 0.0
29/02:00am 17.3 18.8 16.7 96 0.4 SW 4 6 2 3 1022.9 1022.9 0.0
29/01:30am 17.6 18.7 17.0 96 0.4 SW 7 9 4 5 1023.2 1023.2 0.0
29/01:00am 17.1 18.1 16.3 95 0.5 SSW 6 7 3 4 1023.3 1023.3 0.0
29/12:30am 17.6 18.9 17.0 96 0.4 SSW 6 7 3 4 1023.5 1023.5 0.0
29/12:00am 17.9 19.1 16.9 94 0.6 S 6 9 3 5 1023.6 1023.6 0.0
 
Date/Time
EST
Temp
°C
App
Temp
°C
Dew
Point
Rel
Hum
%
Delta-T
°C
Wind Press
QNH
hPa
Press
MSL
hPa
Rain
since 9 am
mm
Dir
 
Spd
km/h
Gust
km/h
Spd
kts
Gust
kts
28/11:30pm 18.3 19.7 17.3 94 0.6 S 6 7 3 4 1023.8 1023.8 0.0
28/11:00pm 18.4 19.7 17.1 92 0.8 SSW 6 6 3 3 1024.1 1024.1 0.0
28/10:30pm 19.0 20.5 17.5 91 0.9 SW 6 7 3 4 1024.1 1024.1 0.0
28/10:00pm 19.2 20.5 17.5 90 1.0 SW 7 9 4 5 1024.0 1024.0 0.0
28/09:30pm 19.6 21.0 17.7 89 1.2 WSW 7 9 4 5 1024.1 1024.1 0.0
28/09:00pm 19.6 20.3 17.9 90 1.0 SW 11 13 6 7 1024.1 1024.1 0.0
28/08:30pm 19.6 21.1 17.7 89 1.2 SSW 6 9 3 5 1024.0 1024.0 0.0
28/08:00pm 19.4 20.8 17.7 90 1.0 S 7 9 4 5 1023.9 1023.9 0.0
28/07:30pm 19.4 21.0 17.9 91 0.9 SW 6 7 3 4 1023.7 1023.7 0.0
28/07:00pm 19.8 21.3 18.1 90 1.0 WSW 7 9 4 5 1023.5 1023.5 0.0
28/06:30pm 20.1 21.7 17.9 87 1.4 SSW 6 7 3 4 1023.1 1023.1 0.0
28/06:00pm 20.6 21.9 17.2 81 2.1 S 6 7 3 4 1023.0 1023.0 0.0
28/05:30pm 21.2 21.9 17.0 77 2.6 SSE 9 13 5 7 1022.8 1022.8 0.0
28/05:00pm 22.6 23.0 17.3 72 3.3 ESE 11 13 6 7 1022.5 1022.5 0.0
28/04:30pm 23.7 23.0 17.4 68 3.9 SE 17 22 9 12 1022.4 1022.4 0.0
28/04:00pm 24.3 24.1 17.5 66 4.2 SE 15 19 8 10 1022.3 1022.3 0.0
28/03:30pm 24.7 24.0 17.4 64 4.5 SE 17 20 9 11 1022.2 1022.2 0.0
28/03:00pm 25.1 24.2 18.3 66 4.3 SE 20 24 11 13 1022.2 1022.2 0.0
28/02:30pm 25.0 24.2 18.0 65 4.4 SE 19 24 10 13 1022.1 1022.1 0.0
28/02:00pm 24.9 24.3 18.4 67 4.1 SE 19 24 10 13 1022.3 1022.3 0.0
28/01:30pm 24.4 24.4 18.1 68 4.0 ESE 15 24 8 13 1022.3 1022.3 0.0
28/01:00pm 24.4 24.7 18.8 71 3.5 SE 15 22 8 12 1022.5 1022.5 0.0
28/12:51pm 24.0 24.8 19.1 74 3.1 SSE 13 17 7 9 1022.6 1022.6 0.0
28/12:30pm 23.8 24.7 19.3 76 2.9 SSE 13 17 7 9 1022.8 1022.8 0.0
28/12:12pm 24.0 23.8 19.3 75 3.0 SE 19 26 10 14 1023.1 1023.1 0.0
28/12:00pm 24.9 24.6 19.1 70 3.7 SE 19 22 10 12 1023.3 1023.3 0.0
28/11:30am 25.3 25.6 18.0 64 4.6 SE 13 22 7 12 1023.4 1023.4 0.0
28/11:00am 24.6 25.5 18.5 69 3.8 SSE 11 19 6 10 1024.0 1024.0 0.0
28/10:30am 24.5 25.5 18.7 70 3.7 SE 11 20 6 11 1024.1 1024.1 0.0
28/10:00am 23.9 23.8 18.8 73 3.2 SSE 17 20 9 11 1024.3 1024.3 0.0
28/09:30am 23.6 24.2 18.7 74 3.1 SSE 13 20 7 11 1024.4 1024.4 0.0
28/09:00am 22.8 22.4 18.1 75 2.9 S 17 24 9 13 1024.3 1024.3 1.8
28/08:30am 22.3 22.9 18.7 80 2.3 S 13 19 7 10 1024.2 1024.2 1.8
28/08:00am 21.6 22.7 18.8 84 1.8 SSW 11 15 6 8 1024.1 1024.1 1.8
28/07:30am 19.3 20.0 18.0 92 0.8 S 11 13 6 7 1023.7 1023.7 1.8
28/07:00am 18.0 19.4 17.4 96 0.4 SSE 6 9 3 5 1023.5 1023.5 1.8
28/06:30am 17.7 19.0 17.1 96 0.4 S 6 7 3 4 1023.3 1023.3 1.8
28/06:00am 17.4 18.0 16.8 96 0.4 S 9 13 5 7 1023.1 1023.1 1.8
28/05:30am 17.6 18.6 16.8 95 0.5 S 7 11 4 6 1022.9 1022.9 1.8
28/05:00am 18.1 19.4 17.5 96 0.4 SSE 7 11 4 6 1022.9 1022.9 1.8
28/04:30am 17.8 19.0 16.8 94 0.6 S 6 9 3 5 1022.5 1022.5 1.8
28/04:00am 17.9 18.5 16.9 94 0.6 S 9 11 5 6 1022.5 1022.5 1.8
28/03:30am 17.9 18.6 17.1 95 0.5 S 9 11 5 6 1022.5 1022.5 1.8
28/03:00am 17.9 19.0 17.1 95 0.5 S 7 9 4 5 1022.5 1022.5 1.8
28/02:30am 17.8 19.0 16.8 94 0.6 SSW 6 7 3 4 1022.7 1022.7 1.8
28/02:00am 17.9 20.2 16.8 93 0.7 CALM 0 0 0 0 1023.1 1023.1 1.8
28/01:30am 18.3 19.4 17.1 93 0.7 SSW 7 9 4 5 1023.2 1023.2 1.8
28/01:00am 18.0 18.6 16.7 92 0.8 S 9 9 5 5 1023.3 1023.3 1.8
28/12:30am 18.6 19.6 16.9 90 1.0 SW 7 11 4 6 1023.4 1023.4 1.8
28/12:00am 19.0 19.8 17.3 90 1.0 SSW 9 13 5 7 1023.4 1023.4 1.8
 
Date/Time
EST
Temp
°C
App
Temp
°C
Dew
Point
Rel
Hum
%
Delta-T
°C
Wind Press
QNH
hPa
Press
MSL
hPa
Rain
since 9 am
mm
Dir
 
Spd
km/h
Gust
km/h
Spd
kts
Gust
kts
27/11:30pm 19.1 19.7 17.6 91 0.9 SW 11 15 6 8 1023.5 1023.5 1.8
27/11:00pm 19.1 19.2 17.4 90 1.0 SW 13 15 7 8 1023.5 1023.5 1.8
27/10:30pm 18.9 19.1 17.6 92 0.8 SSW 13 19 7 10 1023.7 1023.7 1.8
27/10:00pm 19.0 20.2 17.3 90 1.0 SSW 7 11 4 6 1023.7 1023.7 1.6
27/09:30pm 19.4 19.9 17.5 89 1.2 SW 11 17 6 9 1023.8 1023.8 1.6
27/09:00pm 19.1 20.0 17.6 91 0.9 SW 9 15 5 8 1023.9 1023.9 1.6
27/08:30pm 18.5 19.2 17.0 91 0.9 SSW 9 11 5 6 1023.9 1023.9 1.6
27/08:00pm 19.2 20.6 17.7 91 0.9 S 7 9 4 5 1023.7 1023.7 1.6
27/07:30pm 19.3 20.3 17.8 91 0.9 SSW 9 11 5 6 1023.6 1023.6 1.6
27/07:00pm 19.3 20.7 17.8 91 0.9 SSW 7 9 4 5 1023.3 1023.3 1.6
27/06:30pm 19.5 20.2 18.0 91 0.9 SW 11 13 6 7 1023.3 1023.3 1.6
27/06:00pm 19.5 20.6 18.0 91 0.9 SW 9 11 5 6 1023.1 1023.1 1.6
27/05:30pm 19.6 20.8 18.3 92 0.8 SW 9 13 5 7 1022.9 1022.9 1.6
27/05:00pm 20.1 21.3 18.2 89 1.2 SSW 9 15 5 8 1022.6 1022.6 1.6
27/04:40pm 19.9 20.9 18.7 93 0.7 SSW 11 15 6 8 1022.5 1022.5 1.6
27/04:30pm 19.8 20.4 18.6 93 0.7 SSE 13 19 7 10 1022.5 1022.5 1.6
27/04:06pm 19.9 17.9 18.4 91 0.9 SE 26 35 14 19 1022.7 1022.7 1.4
27/04:00pm 20.4 19.5 18.2 87 1.4 ESE 20 35 11 19 1022.6 1022.6 1.2
27/03:59pm 20.6 19.8 18.0 85 1.6 ESE 19 35 10 19 1022.5 1022.5 1.0
27/03:30pm 23.0 21.6 17.0 69 3.7 SE 20 26 11 14 1022.1 1022.1 0.6
27/03:00pm 23.5 22.1 16.5 65 4.3 SE 19 24 10 13 1021.9 1021.9 0.6
27/02:30pm 23.1 21.9 17.1 69 3.7 ESE 19 32 10 17 1021.9 1021.9 0.6
27/02:00pm 23.3 22.2 17.7 71 3.5 E 20 26 11 14 1022.3 1022.3 0.6
27/01:30pm 24.1 22.8 16.9 64 4.4 SSE 19 24 10 13 1022.3 1022.3 0.6
27/01:00pm 23.7 21.3 17.4 68 3.9 ESE 26 33 14 18 1022.7 1022.7 0.6
27/12:30pm 23.0 21.3 18.1 74 3.1 ESE 24 32 13 17 1023.1 1023.1 0.6
27/12:00pm 21.5 22.3 18.1 81 2.1 SSW 11 17 6 9 1023.5 1023.5 0.6
27/11:30am 21.6 21.5 17.8 79 2.4 SSE 15 26 8 14 1023.8 1023.8 0.6
27/11:01am 21.6 22.2 18.6 83 1.9 SSW 13 17 7 9 1024.0 1024.0 0.6
27/11:00am 21.5 22.0 18.3 82 2.0 SSW 13 17 7 9 1024.0 1024.0 0.6
27/10:38am 20.6 20.8 17.6 83 1.8 SSW 13 20 7 11 1024.4 1024.4 0.4
27/10:30am 20.7 19.8 16.9 79 2.3 SSW 17 30 9 16 1024.4 1024.4 0.2
27/10:00am 22.4 21.2 16.2 68 3.7 SSW 17 20 9 11 1024.5 1024.5 0.0

Other Formats:

Comma delimited format used in spreadsheet applications
http://www.bom.gov.au/fwo/IDQ60801/IDQ60801.94592.axf

JavaScript Object Notation format (JSON) in row-major order
http://www.bom.gov.au/fwo/IDQ60801/IDQ60801.94592.json